SENTQ EKRK-ESMQ
Flight info
| Callsign | SENTQ |
|---|---|
| Flight time | 0h 41m |
| Altitude | 17000 |
| Route | DCT KEMAX DCT LAGIS LAGIS1S |
| Aircraft | PC12/L-SDFGRWY/S |
Departure
| Time | 2026-05-09 20:21 |
|---|---|
| Airport | Copenhagen Roskilde Airport (EKRK) |
Arrival
| Time | 2026-05-09 21:02 |
|---|---|
| Airport | Kalmar Airport (ESMQ) |
| Time | Latitude | Longitude | Altitude | Speed | Heading |
|---|---|---|---|---|---|
| 2026-05-09 20:07 | 55.58962 | 12.12725 | 139 ft | 0 kts | 27° |
| 2026-05-09 20:16 | 55.58975 | 12.12735 | 139 ft | 8 kts | 21° |
| 2026-05-09 20:17 | 55.59021 | 12.12646 | 139 ft | 7 kts | 292° |
| 2026-05-09 20:17 | 55.59013 | 12.12589 | 139 ft | 15 kts | 208° |
| 2026-05-09 20:17 | 55.58925 | 12.12468 | 139 ft | 18 kts | 294° |
| 2026-05-09 20:17 | 55.59003 | 12.12174 | 139 ft | 30 kts | 294° |
| 2026-05-09 20:18 | 55.59088 | 12.11857 | 139 ft | 22 kts | 271° |
| 2026-05-09 20:18 | 55.59058 | 12.11694 | 139 ft | 0 kts | 250° |
| 2026-05-09 20:18 | 55.59053 | 12.11674 | 139 ft | 8 kts | 248° |
| 2026-05-09 20:19 | 55.58981 | 12.11620 | 140 ft | 15 kts | 128° |
| 2026-05-09 20:19 | 55.58919 | 12.11837 | 141 ft | 40 kts | 114° |
| 2026-05-09 20:19 | 55.58865 | 12.12034 | 141 ft | 0 kts | 116° |
| 2026-05-09 20:20 | 55.58794 | 12.12281 | 138 ft | 59 kts | 116° |
| 2026-05-09 20:20 | 55.58525 | 12.13247 | 237 ft | 108 kts | 115° |
| 2026-05-09 20:20 | 55.58160 | 12.14546 | 591 ft | 136 kts | 117° |
| 2026-05-09 20:21 | 55.57697 | 12.16171 | 1076 ft | 150 kts | 117° |
| 2026-05-09 20:21 | 55.57287 | 12.17721 | 2220 ft | 134 kts | 117° |
| 2026-05-09 20:21 | 55.56880 | 12.19322 | 2839 ft | 156 kts | 117° |
| 2026-05-09 20:21 | 55.56389 | 12.21302 | 3003 ft | 195 kts | 109° |
| 2026-05-09 20:22 | 55.56621 | 12.23584 | 3828 ft | 186 kts | 59° |
| 2026-05-09 20:22 | 55.57337 | 12.25301 | 5073 ft | 161 kts | 55° |
| 2026-05-09 20:22 | 55.58026 | 12.26776 | 6073 ft | 155 kts | 52° |
| 2026-05-09 20:22 | 55.58736 | 12.28240 | 6902 ft | 157 kts | 53° |
| 2026-05-09 20:23 | 55.59442 | 12.29724 | 7711 ft | 158 kts | 53° |
| 2026-05-09 20:23 | 55.60153 | 12.31230 | 8525 ft | 160 kts | 53° |
| 2026-05-09 20:23 | 55.60862 | 12.32738 | 9343 ft | 163 kts | 53° |
| 2026-05-09 20:23 | 55.61593 | 12.34291 | 10173 ft | 165 kts | 52° |
| 2026-05-09 20:24 | 55.62333 | 12.35865 | 10924 ft | 168 kts | 52° |
| 2026-05-09 20:24 | 55.63089 | 12.37474 | 11689 ft | 171 kts | 51° |
| 2026-05-09 20:24 | 55.63859 | 12.39112 | 12451 ft | 174 kts | 50° |
| 2026-05-09 20:24 | 55.64636 | 12.40770 | 13229 ft | 176 kts | 50° |
| 2026-05-09 20:25 | 55.65426 | 12.42456 | 13999 ft | 179 kts | 49° |
| 2026-05-09 20:25 | 55.66227 | 12.44164 | 14690 ft | 182 kts | 49° |
| 2026-05-09 20:25 | 55.67029 | 12.45879 | 15388 ft | 184 kts | 49° |
| 2026-05-09 20:25 | 55.67855 | 12.47645 | 16093 ft | 187 kts | 49° |
| 2026-05-09 20:26 | 55.68696 | 12.49443 | 16781 ft | 193 kts | 48° |
| 2026-05-09 20:26 | 55.69595 | 12.51364 | 17195 ft | 215 kts | 48° |
| 2026-05-09 20:26 | 55.70625 | 12.53572 | 17204 ft | 249 kts | 49° |
| 2026-05-09 20:26 | 55.71778 | 12.56054 | 17204 ft | 270 kts | 49° |
| 2026-05-09 20:27 | 55.73007 | 12.58697 | 17199 ft | 283 kts | 49° |
| 2026-05-09 20:27 | 55.74274 | 12.61422 | 17195 ft | 289 kts | 49° |
| 2026-05-09 20:27 | 55.75559 | 12.64183 | 17195 ft | 291 kts | 49° |
| 2026-05-09 20:27 | 55.76853 | 12.66973 | 17195 ft | 293 kts | 49° |
| 2026-05-09 20:28 | 55.78132 | 12.69733 | 17194 ft | 293 kts | 49° |
| 2026-05-09 20:28 | 55.79427 | 12.72529 | 17192 ft | 293 kts | 49° |
| 2026-05-09 20:28 | 55.80727 | 12.75342 | 17192 ft | 294 kts | 49° |
| 2026-05-09 20:29 | 55.83320 | 12.80950 | 17193 ft | 294 kts | 49° |
| 2026-05-09 20:29 | 55.84616 | 12.83764 | 17194 ft | 294 kts | 49° |
| 2026-05-09 20:29 | 55.85912 | 12.86579 | 17196 ft | 294 kts | 50° |
| 2026-05-09 20:29 | 55.87209 | 12.89400 | 17195 ft | 294 kts | 50° |
| 2026-05-09 20:30 | 55.88504 | 12.92218 | 17194 ft | 294 kts | 50° |
| 2026-05-09 20:30 | 55.89799 | 12.95042 | 17193 ft | 294 kts | 50° |
| 2026-05-09 20:30 | 55.91094 | 12.97869 | 17192 ft | 294 kts | 50° |
| 2026-05-09 20:30 | 55.92245 | 13.00812 | 17176 ft | 294 kts | 65° |
| 2026-05-09 20:31 | 55.92868 | 13.04289 | 17182 ft | 294 kts | 76° |
| 2026-05-09 20:31 | 55.93419 | 13.07803 | 17184 ft | 294 kts | 71° |
| 2026-05-09 20:31 | 55.94198 | 13.11183 | 17181 ft | 294 kts | 64° |
| 2026-05-09 20:31 | 55.95065 | 13.14485 | 17184 ft | 293 kts | 65° |
| 2026-05-09 20:32 | 55.95853 | 13.17839 | 17182 ft | 293 kts | 68° |
| 2026-05-09 20:32 | 55.96602 | 13.21222 | 17185 ft | 293 kts | 68° |
| 2026-05-09 20:32 | 55.97373 | 13.24601 | 17187 ft | 293 kts | 67° |
| 2026-05-09 20:32 | 55.98145 | 13.27920 | 17188 ft | 293 kts | 67° |
| 2026-05-09 20:33 | 55.98924 | 13.31297 | 17191 ft | 293 kts | 67° |
| 2026-05-09 20:33 | 55.99696 | 13.34671 | 17191 ft | 293 kts | 67° |
| 2026-05-09 20:33 | 56.00468 | 13.38046 | 17191 ft | 293 kts | 67° |
| 2026-05-09 20:33 | 56.01239 | 13.41418 | 17192 ft | 293 kts | 67° |
| 2026-05-09 20:34 | 56.02010 | 13.44796 | 17189 ft | 293 kts | 67° |
| 2026-05-09 20:34 | 56.02780 | 13.48177 | 17190 ft | 293 kts | 67° |
| 2026-05-09 20:34 | 56.03549 | 13.51558 | 17192 ft | 293 kts | 67° |
| 2026-05-09 20:34 | 56.04317 | 13.54936 | 17193 ft | 293 kts | 67° |
| 2026-05-09 20:35 | 56.05085 | 13.58322 | 17197 ft | 293 kts | 67° |
| 2026-05-09 20:35 | 56.05841 | 13.61661 | 17198 ft | 293 kts | 67° |
| 2026-05-09 20:35 | 56.06607 | 13.65051 | 17198 ft | 293 kts | 68° |
| 2026-05-09 20:35 | 56.07372 | 13.68438 | 17199 ft | 293 kts | 68° |
| 2026-05-09 20:36 | 56.08136 | 13.71829 | 17203 ft | 293 kts | 68° |
| 2026-05-09 20:36 | 56.08900 | 13.75229 | 17201 ft | 294 kts | 68° |
| 2026-05-09 20:36 | 56.09664 | 13.78631 | 17197 ft | 293 kts | 67° |
| 2026-05-09 20:36 | 56.10425 | 13.82022 | 17198 ft | 293 kts | 67° |
| 2026-05-09 20:37 | 56.11173 | 13.85366 | 17201 ft | 292 kts | 67° |
| 2026-05-09 20:37 | 56.11930 | 13.88750 | 17201 ft | 292 kts | 67° |
| 2026-05-09 20:37 | 56.12685 | 13.92134 | 17201 ft | 292 kts | 67° |
| 2026-05-09 20:37 | 56.13437 | 13.95511 | 17201 ft | 292 kts | 68° |
| 2026-05-09 20:38 | 56.14190 | 13.98897 | 17198 ft | 292 kts | 68° |
| 2026-05-09 20:38 | 56.14943 | 14.02285 | 17198 ft | 292 kts | 68° |
| 2026-05-09 20:38 | 56.15694 | 14.05670 | 17204 ft | 292 kts | 68° |
| 2026-05-09 20:38 | 56.16444 | 14.09063 | 17207 ft | 292 kts | 68° |
| 2026-05-09 20:39 | 56.17186 | 14.12419 | 17210 ft | 292 kts | 68° |
| 2026-05-09 20:39 | 56.17935 | 14.15813 | 17208 ft | 292 kts | 68° |
| 2026-05-09 20:39 | 56.18682 | 14.19207 | 17205 ft | 292 kts | 68° |
| 2026-05-09 20:39 | 56.19430 | 14.22606 | 17205 ft | 292 kts | 68° |
| 2026-05-09 20:40 | 56.20178 | 14.26007 | 17202 ft | 292 kts | 68° |
| 2026-05-09 20:40 | 56.20922 | 14.29402 | 17202 ft | 292 kts | 68° |
| 2026-05-09 20:40 | 56.21666 | 14.32804 | 17206 ft | 292 kts | 68° |
| 2026-05-09 20:40 | 56.22399 | 14.36164 | 17206 ft | 292 kts | 68° |
| 2026-05-09 20:41 | 56.23143 | 14.39572 | 17209 ft | 292 kts | 68° |
| 2026-05-09 20:41 | 56.23884 | 14.42977 | 17208 ft | 292 kts | 68° |
| 2026-05-09 20:41 | 56.24625 | 14.46385 | 17204 ft | 291 kts | 68° |
| 2026-05-09 20:41 | 56.25363 | 14.49783 | 17205 ft | 291 kts | 68° |
| 2026-05-09 20:42 | 56.26096 | 14.53175 | 17211 ft | 291 kts | 68° |
| 2026-05-09 20:42 | 56.26832 | 14.56570 | 17210 ft | 291 kts | 68° |
| 2026-05-09 20:42 | 56.27568 | 14.59969 | 17216 ft | 291 kts | 68° |
| 2026-05-09 20:42 | 56.28290 | 14.63326 | 17216 ft | 291 kts | 68° |
| 2026-05-09 20:43 | 56.29022 | 14.66727 | 17219 ft | 291 kts | 68° |
| 2026-05-09 20:43 | 56.29754 | 14.70132 | 17219 ft | 291 kts | 68° |
| 2026-05-09 20:43 | 56.30486 | 14.73544 | 17219 ft | 291 kts | 68° |
| 2026-05-09 20:43 | 56.31216 | 14.76953 | 17219 ft | 291 kts | 68° |
| 2026-05-09 20:44 | 56.31946 | 14.80366 | 17216 ft | 291 kts | 68° |
| 2026-05-09 20:44 | 56.32709 | 14.83749 | 17210 ft | 290 kts | 61° |
| 2026-05-09 20:44 | 56.33903 | 14.86607 | 17208 ft | 288 kts | 45° |
| 2026-05-09 20:44 | 56.35270 | 14.89251 | 17211 ft | 288 kts | 47° |
| 2026-05-09 20:45 | 56.36520 | 14.92091 | 17214 ft | 289 kts | 53° |
| 2026-05-09 20:45 | 56.37662 | 14.95089 | 17219 ft | 290 kts | 54° |
| 2026-05-09 20:45 | 56.38826 | 14.98069 | 17219 ft | 290 kts | 52° |
| 2026-05-09 20:45 | 56.40014 | 15.01005 | 17217 ft | 290 kts | 52° |
| 2026-05-09 20:46 | 56.41189 | 15.03907 | 17217 ft | 290 kts | 52° |
| 2026-05-09 20:46 | 56.42391 | 15.06892 | 17217 ft | 290 kts | 52° |
| 2026-05-09 20:46 | 56.43574 | 15.09835 | 17217 ft | 290 kts | 52° |
| 2026-05-09 20:46 | 56.44745 | 15.12748 | 17217 ft | 290 kts | 52° |
| 2026-05-09 20:47 | 56.45932 | 15.15703 | 17222 ft | 290 kts | 52° |
| 2026-05-09 20:47 | 56.47113 | 15.18649 | 17223 ft | 289 kts | 52° |
| 2026-05-09 20:47 | 56.48292 | 15.21594 | 17223 ft | 288 kts | 52° |
| 2026-05-09 20:47 | 56.49472 | 15.24543 | 17223 ft | 288 kts | 52° |
| 2026-05-09 20:48 | 56.50648 | 15.27487 | 17220 ft | 288 kts | 52° |
| 2026-05-09 20:48 | 56.51822 | 15.30429 | 17220 ft | 288 kts | 52° |
| 2026-05-09 20:48 | 56.52980 | 15.33335 | 17221 ft | 288 kts | 52° |
| 2026-05-09 20:48 | 56.54152 | 15.36279 | 17221 ft | 288 kts | 52° |
| 2026-05-09 20:49 | 56.55328 | 15.39236 | 17065 ft | 292 kts | 52° |
| 2026-05-09 20:49 | 56.56531 | 15.42264 | 16713 ft | 298 kts | 53° |
| 2026-05-09 20:49 | 56.57748 | 15.45334 | 16332 ft | 299 kts | 53° |
| 2026-05-09 20:49 | 56.58960 | 15.48395 | 15952 ft | 297 kts | 53° |
| 2026-05-09 20:50 | 56.60161 | 15.51432 | 15573 ft | 294 kts | 53° |
| 2026-05-09 20:50 | 56.61331 | 15.54395 | 15200 ft | 283 kts | 53° |
| 2026-05-09 20:50 | 56.62449 | 15.57226 | 14848 ft | 276 kts | 53° |
| 2026-05-09 20:50 | 56.63565 | 15.60056 | 14498 ft | 274 kts | 53° |
| 2026-05-09 20:51 | 56.64668 | 15.62858 | 14149 ft | 272 kts | 53° |
| 2026-05-09 20:51 | 56.65766 | 15.65649 | 13778 ft | 270 kts | 53° |
| 2026-05-09 20:51 | 56.66852 | 15.68416 | 13424 ft | 268 kts | 54° |
| 2026-05-09 20:51 | 56.67936 | 15.71178 | 13073 ft | 268 kts | 54° |
| 2026-05-09 20:52 | 56.69020 | 15.73941 | 12721 ft | 268 kts | 54° |
| 2026-05-09 20:52 | 56.70086 | 15.76667 | 12373 ft | 267 kts | 54° |
| 2026-05-09 20:52 | 56.71163 | 15.79420 | 12015 ft | 266 kts | 54° |
| 2026-05-09 20:52 | 56.72236 | 15.82168 | 11670 ft | 265 kts | 54° |
| 2026-05-09 20:53 | 56.73299 | 15.84893 | 11323 ft | 262 kts | 54° |
| 2026-05-09 20:53 | 56.74354 | 15.87601 | 10976 ft | 261 kts | 54° |
| 2026-05-09 20:53 | 56.75403 | 15.90297 | 10637 ft | 260 kts | 54° |
| 2026-05-09 20:53 | 56.76446 | 15.92979 | 10296 ft | 259 kts | 54° |
| 2026-05-09 20:54 | 56.77487 | 15.95648 | 9939 ft | 257 kts | 54° |
| 2026-05-09 20:54 | 56.78511 | 15.98289 | 9556 ft | 254 kts | 54° |
| 2026-05-09 20:54 | 56.79280 | 16.01161 | 8813 ft | 251 kts | 77° |
| 2026-05-09 20:54 | 56.79478 | 16.04236 | 8140 ft | 244 kts | 83° |
| 2026-05-09 20:55 | 56.80109 | 16.07052 | 7452 ft | 240 kts | 56° |
| 2026-05-09 20:55 | 56.81074 | 16.09419 | 6823 ft | 222 kts | 49° |
| 2026-05-09 20:55 | 56.82142 | 16.11361 | 6183 ft | 213 kts | 42° |
| 2026-05-09 20:55 | 56.83237 | 16.13167 | 5547 ft | 210 kts | 41° |
| 2026-05-09 20:56 | 56.84306 | 16.14914 | 4944 ft | 208 kts | 41° |
| 2026-05-09 20:56 | 56.85887 | 16.19059 | 3688 ft | 196 kts | 92° |
| 2026-05-09 20:56 | 56.85281 | 16.21029 | 3569 ft | 180 kts | 154° |
| 2026-05-09 20:57 | 56.84054 | 16.21324 | 3620 ft | 183 kts | 181° |
| 2026-05-09 20:57 | 56.82772 | 16.21237 | 3449 ft | 180 kts | 183° |
| 2026-05-09 20:57 | 56.81581 | 16.21061 | 2960 ft | 165 kts | 186° |
| 2026-05-09 20:57 | 56.80500 | 16.20818 | 2665 ft | 149 kts | 186° |
| 2026-05-09 20:58 | 56.79823 | 16.20654 | 2565 ft | 147 kts | 186° |
| 2026-05-09 20:58 | 56.78835 | 16.20445 | 2127 ft | 133 kts | 186° |
| 2026-05-09 20:58 | 56.77958 | 16.20379 | 1677 ft | 120 kts | 177° |
| 2026-05-09 20:58 | 56.77217 | 16.20661 | 1388 ft | 105 kts | 160° |
| 2026-05-09 20:59 | 56.76529 | 16.21141 | 1393 ft | 107 kts | 156° |
| 2026-05-09 20:59 | 56.75838 | 16.21750 | 1443 ft | 112 kts | 152° |
| 2026-05-09 20:59 | 56.75167 | 16.22463 | 1537 ft | 115 kts | 150° |
| 2026-05-09 21:00 | 56.73658 | 16.23849 | 1269 ft | 124 kts | 149° |
| 2026-05-09 21:00 | 56.72925 | 16.24600 | 955 ft | 118 kts | 153° |
| 2026-05-09 21:00 | 56.72211 | 16.25248 | 591 ft | 108 kts | 152° |
| 2026-05-09 21:00 | 56.71583 | 16.25861 | 421 ft | 100 kts | 151° |
| 2026-05-09 21:01 | 56.70940 | 16.26472 | 361 ft | 102 kts | 149° |
| 2026-05-09 21:01 | 56.70321 | 16.27064 | 239 ft | 97 kts | 148° |
| 2026-05-09 21:01 | 56.69754 | 16.27608 | 96 ft | 91 kts | 151° |
| 2026-05-09 21:02 | 56.68898 | 16.28420 | 31 ft | 27 kts | 151° |
| 2026-05-09 21:02 | 56.68675 | 16.28636 | 27 ft | 45 kts | 152° |
| 2026-05-09 21:02 | 56.68382 | 16.28916 | 29 ft | 48 kts | 153° |
| 2026-05-09 21:02 | 56.68100 | 16.29184 | 28 ft | 36 kts | 152° |
| 2026-05-09 21:03 | 56.67950 | 16.29199 | 29 ft | 24 kts | 237° |
| 2026-05-09 21:03 | 56.67871 | 16.29072 | 29 ft | 10 kts | 221° |
| 2026-05-09 21:03 | 56.67853 | 16.29040 | 29 ft | 8 kts | 230° |
| 2026-05-09 21:03 | 56.67796 | 16.28957 | 29 ft | 8 kts | 214° |
| 2026-05-09 21:04 | 56.67790 | 16.28950 | 29 ft | 0 kts | 214° |